Time;durP1;ratioP1;P1;durP2;ratioP2;P2;SDS_P1;SDS_P2;PMS_P1;PMS_P2;Temp;Humidity;BMP_temperature;BMP_pressure;BME280_temperature;BME280_humidity;BME280_pressure;Samples;Min_cycle;Max_cycle;Signal;HPM_P1;HPM_P2
2023/05/13 00:02:08;;;;;;;;;;;;;;;23.54;50.28;99737.75;7317123;19;129005;-42
2023/05/13 00:04:33;;;;;;;;;;;;;;;23.53;50.59;99743.97;7316178;19;130195;-42
2023/05/13 00:06:58;;;;;;;;;;;;;;;23.52;50.54;99739.69;7317396;19;129188;-42
2023/05/13 00:09:23;;;;;;;;;;;;;;;23.52;49.98;99729.19;7318295;19;129626;-42
2023/05/13 00:11:49;;;;;;;;;;;;;;;23.44;49.87;99721.22;7316590;19;129534;-38
2023/05/13 00:14:14;;;;;;;;;;;;;;;23.53;50.04;99736.09;7316214;19;129650;-42
2023/05/13 00:16:39;;;;;;;;;;;;;;;23.54;49.97;99732.50;7316339;19;130432;-40
2023/05/13 00:19:05;;;;;;;;;;;;;;;23.54;50.01;99732.50;7317124;19;129073;-42
2023/05/13 00:21:31;;;;;;;;;;;;;;;23.54;50.57;99736.91;7317082;19;129302;-41
2023/05/13 00:23:56;;;;;;;;;;;;;;;23.53;50.66;99736.09;7315184;19;130188;-40
2023/05/13 00:26:21;;;;;;;;;;;;;;;23.43;50.62;99713.50;7317347;19;130157;-41
2023/05/13 00:28:46;;;;;;;;;;;;;;;23.53;49.93;99736.09;7317509;19;129049;-42
2023/05/13 00:31:11;;;;;;;;;;;;;;;23.52;50.76;99734.44;7315775;19;129114;-39
2023/05/13 00:33:37;;;;;;;;;;;;;;;23.51;50.69;99727.53;7316263;19;130300;-42
2023/05/13 00:36:02;;;;;;;;;;;;;;;23.50;50.65;99722.44;7316412;19;130772;-42
2023/05/13 00:38:28;;;;;;;;;;;;;;;23.49;50.92;99734.72;7316918;19;130096;-42
2023/05/13 00:40:53;;;;;;;;;;;;;;;23.51;50.32;99731.97;7316580;19;130655;-42
2023/05/13 00:43:18;;;;;;;;;;;;;;;23.53;50.09;99728.22;7312261;19;129637;-41
2023/05/13 00:45:43;;;;;;;;;;;;;;;23.54;50.68;99731.66;7315080;19;130283;-40
2023/05/13 00:48:09;;;;;;;;;;;;;;;23.54;49.97;99722.00;7315907;19;129107;-41
2023/05/13 00:50:34;;;;;;;;;;;;;;;23.54;50.63;99727.25;7316343;19;128825;-39
2023/05/13 00:53:00;;;;;;;;;;;;;;;23.53;50.33;99725.59;7316476;19;130737;-41
2023/05/13 00:55:25;;;;;;;;;;;;;;;23.53;50.16;99725.59;7315648;19;129856;-40
2023/05/13 00:57:51;;;;;;;;;;;;;;;23.52;50.10;99731.00;7316302;19;131215;-40
2023/05/13 01:00:16;;;;;;;;;;;;;;;23.49;50.47;99726.84;7315871;19;129111;-42
2023/05/13 01:02:41;;;;;;;;;;;;;;;23.53;50.33;99732.63;7315614;19;129026;-40
2023/05/13 01:05:19;;;;;;;;;;;;;;;23.52;50.30;99734.44;7313559;19;129651;-42
2023/05/13 01:08:03;;;;;;;;;;;;;;;23.41;50.29;99715.44;7315936;19;129108;-42
2023/05/13 01:10:37;;;;;;;;;;;;;;;23.43;50.54;99724.84;7315586;19;128875;-41
2023/05/13 01:13:07;;;;;;;;;;;;;;;23.51;50.97;99743.28;7315079;19;129431;-42
2023/05/13 01:15:33;;;;;;;;;;;;;;;23.51;50.34;99743.28;7314939;19;129547;-40
2023/05/13 01:18:05;;;;;;;;;;;;;;;23.51;50.46;99748.53;7316227;19;129456;-41
2023/05/13 01:20:30;;;;;;;;;;;;;;;23.51;50.97;99748.53;7315439;19;129057;-42
2023/05/13 01:22:55;;;;;;;;;;;;;;;23.50;50.93;99757.41;7315141;19;129256;-42
2023/05/13 01:25:21;;;;;;;;;;;;;;;23.50;50.39;99762.66;7314458;19;131396;-42
2023/05/13 01:27:46;;;;;;;;;;;;;;;23.48;50.90;99759.34;7316055;19;130781;-43
2023/05/13 01:30:12;;;;;;;;;;;;;;;23.49;50.24;99771.47;7315302;19;131001;-39
2023/05/13 01:32:37;;;;;;;;;;;;;;;23.47;50.32;99762.91;7315411;19;129650;-42
2023/05/13 01:35:03;;;;;;;;;;;;;;;23.39;50.37;99754.97;7312336;19;129183;-39
2023/05/13 01:37:29;;;;;;;;;;;;;;;23.49;50.68;99768.84;7315502;19;129000;-39
2023/05/13 01:39:54;;;;;;;;;;;;;;;23.51;50.50;99772.16;7315335;19;129116;-42
2023/05/13 01:42:19;;;;;;;;;;;;;;;23.49;50.28;99770.63;7314794;19;129068;-42
2023/05/13 01:44:45;;;;;;;;;;;;;;;23.49;51.00;99776.72;7313689;19;130342;-39
2023/05/13 01:47:10;;;;;;;;;;;;;;;23.48;51.10;99780.34;7315722;19;129117;-41
2023/05/13 01:49:36;;;;;;;;;;;;;;;23.46;51.04;99777.03;7315385;19;130967;-42
2023/05/13 01:52:03;;;;;;;;;;;;;;;23.46;51.06;99782.25;7315350;19;129070;-42
2023/05/13 01:54:28;;;;;;;;;;;;;;;23.46;50.78;99777.03;7312368;19;130556;-41
2023/05/13 01:56:53;;;;;;;;;;;;;;;23.46;50.76;99771.78;7314006;19;129051;-41
2023/05/13 01:59:18;;;;;;;;;;;;;;;23.47;51.07;99776.03;7314151;19;130227;-42
2023/05/13 02:01:44;;;;;;;;;;;;;;;23.49;50.78;99775.88;7315196;19;129422;-41
2023/05/13 02:04:10;;;;;;;;;;;;;;;23.47;50.81;99767.34;7312659;19;130673;-41
2023/05/13 02:06:35;;;;;;;;;;;;;;;23.48;50.51;99767.22;7314599;19;129677;-42
2023/05/13 02:09:00;;;;;;;;;;;;;;;23.50;50.80;99770.53;7315122;19;129154;-42
2023/05/13 02:11:26;;;;;;;;;;;;;;;23.49;50.38;99770.63;7313953;19;130148;-39
2023/05/13 02:13:51;;;;;;;;;;;;;;;23.46;50.46;99770.94;7313256;19;129724;-42
2023/05/13 02:16:17;;;;;;;;;;;;;;;23.49;50.79;99774.09;7313967;19;128894;-41
2023/05/13 02:18:42;;;;;;;;;;;;;;;23.47;51.16;99772.59;7315301;19;129127;-41
2023/05/13 02:21:07;;;;;;;;;;;;;;;23.47;50.92;99762.91;7314100;19;129452;-42
2023/05/13 02:23:32;;;;;;;;;;;;;;;23.47;50.90;99770.78;7313137;19;129792;-41
2023/05/13 02:25:58;;;;;;;;;;;;;;;23.39;50.87;99754.97;7313390;19;129376;-41
2023/05/13 02:28:23;;;;;;;;;;;;;;;23.46;50.48;99771.78;7314551;19;129462;-42
2023/05/13 02:30:48;;;;;;;;;;;;;;;23.47;50.74;99768.16;7314255;19;129537;-40
2023/05/13 02:33:13;;;;;;;;;;;;;;;23.46;51.21;99769.16;7313462;19;130324;-42
2023/05/13 02:35:39;;;;;;;;;;;;;;;23.46;50.54;99771.78;7313160;19;128990;-40
2023/05/13 02:38:04;;;;;;;;;;;;;;;23.48;50.88;99772.47;7314097;19;129181;-41
2023/05/13 02:40:29;;;;;;;;;;;;;;;23.47;50.63;99773.41;7313636;19;129126;-41
2023/05/13 02:42:54;;;;;;;;;;;;;;;23.48;51.17;99774.25;7312973;19;129708;-41
2023/05/13 02:45:20;;;;;;;;;;;;;;;23.49;50.38;99775.88;7311013;19;129420;-42
2023/05/13 02:47:45;;;;;;;;;;;;;;;23.46;51.24;99769.16;7313483;19;129234;-40
2023/05/13 02:50:11;;;;;;;;;;;;;;;23.40;50.57;99767.13;7313397;19;128997;-44
2023/05/13 02:52:38;;;;;;;;;;;;;;;23.49;50.50;99775.88;7313413;19;130178;-42
2023/05/13 02:55:03;;;;;;;;;;;;;;;23.37;50.63;99756.91;7310525;19;129612;-42
2023/05/13 02:57:28;;;;;;;;;;;;;;;23.45;51.39;99778.00;7311532;19;129684;-43
2023/05/13 02:59:54;;;;;;;;;;;;;;;23.46;50.96;99776.19;7313628;19;130357;-41
2023/05/13 03:02:19;;;;;;;;;;;;;;;23.44;51.34;99768.47;7313050;19;129233;-42
2023/05/13 03:04:45;;;;;;;;;;;;;;;23.45;50.60;99770.13;7310677;19;128896;-39
2023/05/13 03:07:10;;;;;;;;;;;;;;;23.45;50.97;99772.75;7317512;19;128970;-42
2023/05/13 03:09:38;;;;;;;;;;;;;;;23.44;50.70;99772.88;7320146;19;129440;-42
2023/05/13 03:12:04;;;;;;;;;;;;;;;23.37;51.02;99762.16;7318494;19;129240;-42
2023/05/13 03:14:29;;;;;;;;;;;;;;;23.47;50.97;99767.34;7316700;19;129444;-44
2023/05/13 03:16:54;;;;;;;;;;;;;;;23.46;51.32;99766.53;7319381;19;129575;-42
2023/05/13 03:19:20;;;;;;;;;;;;;;;23.46;51.29;99773.56;7318406;19;129556;-42
2023/05/13 03:21:45;;;;;;;;;;;;;;;23.47;50.64;99773.41;7319369;19;129596;-42
2023/05/13 03:24:10;;;;;;;;;;;;;;;23.46;51.23;99778.81;7317091;19;128957;-40
2023/05/13 03:26:35;;;;;;;;;;;;;;;23.45;51.37;99779.78;7316732;19;128817;-42
2023/05/13 03:29:01;;;;;;;;;;;;;;;23.44;50.73;99778.97;7319654;19;128975;-41
2023/05/13 03:31:26;;;;;;;;;;;;;;;23.37;51.36;99761.34;7318318;19;129234;-42
2023/05/13 03:33:51;;;;;;;;;;;;;;;23.47;50.74;99783.09;7318724;19;129378;-42
2023/05/13 03:36:16;;;;;;;;;;;;;;;23.47;51.14;99783.09;7318481;19;129561;-42
2023/05/13 03:38:42;;;;;;;;;;;;;;;23.46;50.70;99782.25;7318021;19;129383;-43
2023/05/13 03:41:07;;;;;;;;;;;;;;;23.47;51.33;99783.91;7317806;19;130430;-40
2023/05/13 03:43:32;;;;;;;;;;;;;;;23.47;51.30;99783.91;7317397;19;129472;-38
2023/05/13 03:45:58;;;;;;;;;;;;;;;23.44;51.05;99783.38;7318093;19;128757;-40
2023/05/13 03:48:23;;;;;;;;;;;;;;;23.43;50.78;99785.19;7318514;19;130308;-37
2023/05/13 03:50:48;;;;;;;;;;;;;;;23.43;50.90;99781.72;7317571;19;130283;-38
2023/05/13 03:53:14;;;;;;;;;;;;;;;23.44;51.14;99788.63;7317696;19;129364;-42
2023/05/13 03:55:40;;;;;;;;;;;;;;;23.42;50.77;99791.41;7317314;19;128860;-41
2023/05/13 03:58:13;;;;;;;;;;;;;;;23.45;51.20;99788.50;7317724;19;131133;-38
2023/05/13 04:00:38;;;;;;;;;;;;;;;23.45;50.84;99785.88;7315190;19;131099;-41
2023/05/13 04:03:03;;;;;;;;;;;;;;;23.43;50.86;99790.44;7316408;19;128999;-39
2023/05/13 04:05:28;;;;;;;;;;;;;;;23.42;51.30;99791.41;7318493;19;130446;-39
2023/05/13 04:07:54;;;;;;;;;;;;;;;23.45;51.32;99791.13;7313455;19;130016;-38
2023/05/13 04:10:19;;;;;;;;;;;;;;;23.46;51.10;99794.56;7316945;19;130056;-38
2023/05/13 04:12:44;;;;;;;;;;;;;;;23.43;51.23;99787.81;7314748;19;129757;-39
2023/05/13 04:15:09;;;;;;;;;;;;;;;23.43;51.36;99793.06;7315447;19;129828;-40
2023/05/13 04:17:35;;;;;;;;;;;;;;;23.44;51.46;99792.06;7312855;19;130964;-39
2023/05/13 04:20:00;;;;;;;;;;;;;;;23.42;51.24;99796.63;7316339;19;130558;-39
2023/05/13 04:22:25;;;;;;;;;;;;;;;23.42;51.09;99791.41;7314881;19;129155;-39
2023/05/13 04:24:55;;;;;;;;;;;;;;;23.45;51.05;99798.16;7314302;19;129191;-39
2023/05/13 04:27:20;;;;;;;;;;;;;;;23.44;51.49;99799.94;7314218;19;130973;-38
2023/05/13 04:29:45;;;;;;;;;;;;;;;23.42;50.80;99801.88;7316399;19;129443;-40
2023/05/13 04:32:14;;;;;;;;;;;;;;;23.43;51.52;99800.09;7316962;19;129395;-40
2023/05/13 04:34:39;;;;;;;;;;;;;;;23.40;51.27;99803.84;7312984;19;129196;-40
2023/05/13 04:37:05;;;;;;;;;;;;;;;23.41;51.28;99805.50;7313470;19;129957;-39
2023/05/13 04:39:30;;;;;;;;;;;;;;;23.44;50.93;99805.19;7316025;19;130210;-39
2023/05/13 04:41:55;;;;;;;;;;;;;;;23.44;50.98;99807.81;7311028;19;129614;-39
2023/05/13 04:44:20;;;;;;;;;;;;;;;23.43;51.12;99808.81;7305714;19;131180;-40
2023/05/13 04:46:47;;;;;;;;;;;;;;;23.35;50.99;99800.84;7309957;19;130109;-39
2023/05/13 04:49:13;;;;;;;;;;;;;;;23.44;50.86;99810.44;7314479;19;130418;-39
2023/05/13 04:51:38;;;;;;;;;;;;;;;23.44;51.02;99820.09;7311410;19;129530;-40
2023/05/13 04:54:03;;;;;;;;;;;;;;;23.43;51.14;99819.31;7311410;19;129083;-40
2023/05/13 04:56:28;;;;;;;;;;;;;;;23.43;51.47;99823.72;7311468;19;130621;-40
2023/05/13 04:58:54;;;;;;;;;;;;;;;23.43;51.28;99819.31;7313626;19;129627;-40
2023/05/13 05:01:19;;;;;;;;;;;;;;;23.44;51.27;99815.69;7316870;19;130026;-38
2023/05/13 05:03:44;;;;;;;;;;;;;;;23.45;50.91;99822.63;7307552;19;129183;-40
2023/05/13 05:26:32;;;;;;;;;;;;;;;23.46;51.44;99834.75;7304048;19;129674;-68
2023/05/13 05:28:57;;;;;;;;;;;;;;;23.48;51.10;99843.31;7310404;19;129379;-67
2023/05/13 05:31:22;;;;;;;;;;;;;;;23.50;51.25;99843.16;7309245;19;130761;-67
2023/05/13 05:33:47;;;;;;;;;;;;;;;23.51;51.32;99845.63;7304411;19;129326;-66
2023/05/13 05:36:13;;;;;;;;;;;;;;;23.53;51.10;99840.25;7306466;19;129515;-66
2023/05/13 05:38:38;;;;;;;;;;;;;;;23.52;51.20;99839.41;7305349;19;129689;-67
2023/05/13 05:41:03;;;;;;;;;;;;;;;23.53;51.36;99841.06;7305132;19;129942;-68
2023/05/13 05:43:29;;;;;;;;;;;;;;;23.54;51.38;99842.72;7309761;19;129228;-68
2023/05/13 05:45:54;;;;;;;;;;;;;;;23.53;50.70;99843.69;7305643;19;129726;-68
2023/05/13 05:48:19;;;;;;;;;;;;;;;23.52;51.32;99849.09;7311488;19;130472;-67
2023/05/13 05:50:45;;;;;;;;;;;;;;;23.53;51.41;99851.56;7307089;19;130431;-67
2023/05/13 05:53:10;;;;;;;;;;;;;;;23.54;50.77;99847.97;7310886;19;130313;-66
2023/05/13 05:55:35;;;;;;;;;;;;;;;23.55;51.02;99849.59;7305436;19;129549;-66
2023/05/13 05:58:05;;;;;;;;;;;;;;;23.53;50.80;99846.31;7308094;19;129577;-67
2023/05/13 06:00:31;;;;;;;;;;;;;;;23.53;50.79;99846.31;7309593;19;129346;-66
2023/05/13 06:02:56;;;;;;;;;;;;;;;23.55;51.26;99844.34;7314694;19;129321;-66
2023/05/13 06:05:22;;;;;;;;;;;;;;;23.53;50.77;99843.69;7308005;19;129064;-65
2023/05/13 06:07:47;;;;;;;;;;;;;;;23.55;51.10;99840.94;7311261;19;130595;-65
2023/05/13 06:10:12;;;;;;;;;;;;;;;23.56;51.04;99840.78;7300029;19;129800;-64
2023/05/13 06:12:39;;;;;;;;;;;;;;;23.46;51.30;99826.88;7310258;19;129151;-65
2023/05/13 06:30:35;;;;;;;;;;;;;;;23.54;50.82;99844.50;7309002;19;129464;-65
2023/05/13 06:33:04;;;;;;;;;;;;;;;23.52;51.25;99852.53;7309496;19;129336;-65
2023/05/13 06:35:29;;;;;;;;;;;;;;;23.53;51.41;99848.94;7306783;19;131232;-67
2023/05/13 06:37:55;;;;;;;;;;;;;;;23.53;51.38;99846.31;7312392;19;128980;-67
2023/05/13 06:40:20;;;;;;;;;;;;;;;23.43;51.58;99829.81;7307811;19;129609;-65
2023/05/13 06:42:45;;;;;;;;;;;;;;;23.56;51.09;99840.78;7309346;19;130862;-65
2023/05/13 06:45:10;;;;;;;;;;;;;;;23.53;51.16;99841.06;7308482;19;130217;-65
2023/05/13 06:47:35;;;;;;;;;;;;;;;23.53;51.22;99840.25;7307830;19;129078;-65
2023/05/13 06:50:02;;;;;;;;;;;;;;;23.51;51.20;99845.63;7309880;19;130022;-65
2023/05/13 06:52:27;;;;;;;;;;;;;;;23.49;51.42;99842.31;7311884;19;129635;-65
2023/05/13 06:54:52;;;;;;;;;;;;;;;23.47;51.39;99840.84;7310119;19;129816;-65
2023/05/13 06:57:17;;;;;;;;;;;;;;;23.46;51.38;99842.63;7311588;19;129296;-65
2023/05/13 06:59:43;;;;;;;;;;;;;;;23.37;51.55;99834.81;7309240;19;132229;-65
2023/05/13 07:02:10;;;;;;;;;;;;;;;23.42;51.49;99837.81;7312011;19;129297;-65
2023/05/13 07:22:52;;;;;;;;;;;;;;;23.38;52.00;99826.78;7305040;19;130078;-65
2023/05/13 07:25:18;;;;;;;;;;;;;;;23.27;51.74;99807.78;7305194;19;130698;-66
2023/05/13 07:27:43;;;;;;;;;;;;;;;23.39;51.80;99827.63;7307360;19;129479;-66
2023/05/13 07:30:09;;;;;;;;;;;;;;;23.39;52.03;99828.44;7308072;19;129848;-65
2023/05/13 07:32:35;;;;;;;;;;;;;;;23.37;51.47;99825.13;7309738;19;129311;-65
2023/05/13 07:35:01;;;;;;;;;;;;;;;23.38;52.14;99820.69;7307272;19;130301;-65
2023/05/13 07:37:26;;;;;;;;;;;;;;;23.39;51.69;99831.06;7305874;19;129087;-66
2023/05/13 07:39:52;;;;;;;;;;;;;;;23.37;51.48;99827.75;7307623;19;129177;-66
2023/05/13 07:42:18;;;;;;;;;;;;;;;23.39;51.41;99828.44;7307890;19;129611;-67
2023/05/13 07:44:43;;;;;;;;;;;;;;;23.38;51.67;99826.78;7308004;19;129995;-67
2023/05/13 07:47:08;;;;;;;;;;;;;;;23.27;51.64;99810.41;7308602;19;129331;-68
2023/05/13 07:49:33;;;;;;;;;;;;;;;23.39;51.47;99828.44;7306123;19;129128;-68
2023/05/13 07:51:58;;;;;;;;;;;;;;;23.32;51.75;99816.03;7311167;19;129162;-67
2023/05/13 08:03:42;;;;;;;;;;;;;;;23.37;51.45;99819.88;7315862;19;130968;-68
2023/05/13 08:09:41;;;;;;;;;;;;;;;23.37;51.79;99812.00;7316184;19;129151;-67
2023/05/13 08:12:06;;;;;;;;;;;;;;;23.37;52.11;99819.88;7314646;19;129330;-66
2023/05/13 08:14:32;;;;;;;;;;;;;;;23.35;52.27;99815.75;7316418;19;129426;-66
2023/05/13 08:16:57;;;;;;;;;;;;;;;23.27;52.11;99797.28;7314661;19;130394;-66
2023/05/13 08:19:22;;;;;;;;;;;;;;;23.37;51.83;99819.88;7316495;19;129008;-66
2023/05/13 08:21:47;;;;;;;;;;;;;;;23.37;52.11;99814.63;7314931;19;129099;-66
2023/05/13 08:24:13;;;;;;;;;;;;;;;23.36;52.03;99807.72;7315134;19;130286;-66
2023/05/13 08:26:38;;;;;;;;;;;;;;;23.33;52.15;99815.06;7316019;19;129528;-67
2023/05/13 08:29:03;;;;;;;;;;;;;;;23.35;52.12;99803.47;7315219;19;129548;-68
2023/05/13 08:31:29;;;;;;;;;;;;;;;23.36;51.53;99801.66;7315762;19;129222;-67
2023/05/13 08:33:54;;;;;;;;;;;;;;;23.35;52.06;99805.25;7315955;19;129374;-67
2023/05/13 08:36:21;;;;;;;;;;;;;;;23.37;51.77;99806.75;7314130;19;129093;-67
2023/05/13 08:38:47;;;;;;;;;;;;;;;23.36;52.06;99805.09;7316152;19;129192;-66
2023/05/13 08:41:13;;;;;;;;;;;;;;;23.37;51.45;99819.88;7312439;19;129197;-66
2023/05/13 08:43:38;;;;;;;;;;;;;;;23.37;51.97;99809.38;7317009;19;129179;-67
2023/05/13 08:46:05;;;;;;;;;;;;;;;23.35;52.12;99811.34;7313967;19;129218;-68
2023/05/13 08:48:31;;;;;;;;;;;;;;;23.36;51.49;99814.75;7317616;19;129250;-68
2023/05/13 08:50:57;;;;;;;;;;;;;;;23.22;51.85;99785.38;7314181;19;129866;-66
2023/05/13 08:53:23;;;;;;;;;;;;;;;23.34;51.43;99808.88;7317076;19;129779;-67
2023/05/13 08:55:50;;;;;;;;;;;;;;;23.31;51.73;99799.47;7315666;19;129436;-66
2023/05/13 08:58:15;;;;;;;;;;;;;;;23.36;51.63;99809.53;7316299;19;129625;-66
2023/05/13 09:00:41;;;;;;;;;;;;;;;23.24;51.56;99783.47;7310666;19;130155;-66
2023/05/13 09:03:06;;;;;;;;;;;;;;;23.34;51.40;99801.78;7313974;19;129383;-66
2023/05/13 09:05:32;;;;;;;;;;;;;;;23.34;52.14;99809.66;7310435;19;129692;-66
2023/05/13 09:07:57;;;;;;;;;;;;;;;23.34;51.80;99814.91;7313531;19;129372;-66
2023/05/13 09:10:22;;;;;;;;;;;;;;;23.35;52.13;99811.34;7312036;19;129396;-67
2023/05/13 09:12:52;;;;;;;;;;;;;;;23.35;52.08;99803.47;7314594;19;129546;-67
2023/05/13 09:15:26;;;;;;;;;;;;;;;23.34;52.14;99814.91;7312298;19;129645;-67
2023/05/13 09:17:58;;;;;;;;;;;;;;;23.35;52.14;99813.97;7313957;19;130437;-66
2023/05/13 09:20:26;;;;;;;;;;;;;;;23.36;51.40;99812.16;7311392;19;129722;-67
2023/05/13 09:22:55;;;;;;;;;;;;;;;23.34;51.91;99820.16;7313857;19;130367;-67
2023/05/13 09:25:24;;;;;;;;;;;;;;;23.33;51.95;99815.06;7311690;19;129578;-66
2023/05/13 09:27:56;;;;;;;;;;;;;;;23.33;51.64;99808.03;7306272;19;129395;-67
2023/05/13 09:30:22;;;;;;;;;;;;;;;23.32;52.26;99811.59;7311870;19;129648;-67
2023/05/13 09:33:04;;;;;;;;;;;;;;;23.25;51.53;99800.03;7315306;19;129332;-68
2023/05/13 09:35:30;;;;;;;;;;;;;;;23.31;51.94;99815.22;7314076;19;129433;-68
2023/05/13 09:37:56;;;;;;;;;;;;;;;23.20;51.90;99795.19;7316034;19;129077;-68
2023/05/13 09:40:21;;;;;;;;;;;;;;;23.33;51.67;99825.56;7314708;19;129401;-67
2023/05/13 09:42:46;;;;;;;;;;;;;;;23.21;52.30;99803.91;7310647;19;129597;-68
2023/05/13 09:45:13;;;;;;;;;;;;;;;23.31;52.03;99812.59;7313815;19;129155;-68
2023/05/13 09:47:38;;;;;;;;;;;;;;;23.34;52.29;99819.34;7319118;19;129259;-68
2023/05/13 09:50:04;;;;;;;;;;;;;;;23.33;51.84;99813.28;7312461;19;129103;-68
2023/05/13 09:52:30;;;;;;;;;;;;;;;23.32;51.88;99816.03;7314093;19;131768;-67
2023/05/13 09:54:57;;;;;;;;;;;;;;;23.32;51.55;99811.59;7312524;19;131857;-67
2023/05/13 09:57:22;;;;;;;;;;;;;;;23.32;52.24;99808.97;7314929;19;129276;-66
2023/05/13 09:59:47;;;;;;;;;;;;;;;23.32;51.59;99813.41;7315503;19;128808;-68
2023/05/13 10:02:14;;;;;;;;;;;;;;;23.30;51.87;99807.50;7314293;19;130131;-68
2023/05/13 10:04:40;;;;;;;;;;;;;;;23.23;52.31;99791.47;7314842;19;129182;-67
2023/05/13 10:07:06;;;;;;;;;;;;;;;23.30;51.84;99805.69;7314583;19;128913;-67
2023/05/13 10:09:34;;;;;;;;;;;;;;;23.30;51.97;99797.84;7313035;19;129765;-67
2023/05/13 10:12:01;;;;;;;;;;;;;;;23.31;52.09;99801.25;7314505;19;129262;-67
2023/05/13 10:14:27;;;;;;;;;;;;;;;23.29;52.24;99800.59;7314171;19;129461;-68
2023/05/13 10:16:52;;;;;;;;;;;;;;;23.30;52.26;99804.88;7312044;19;129067;-67
2023/05/13 10:19:18;;;;;;;;;;;;;;;23.30;52.34;99807.50;7310454;19;129156;-67
2023/05/13 10:21:44;;;;;;;;;;;;;;;23.29;52.08;99811.91;7314494;19;130080;-66
2023/05/13 10:24:10;;;;;;;;;;;;;;;23.30;51.99;99813.56;7311644;19;129179;-66
2023/05/13 10:26:36;;;;;;;;;;;;;;;23.21;52.00;99788.16;7312729;19;129841;-67
2023/05/13 10:29:02;;;;;;;;;;;;;;;23.30;52.34;99802.25;7313256;19;130219;-66
2023/05/13 10:31:28;;;;;;;;;;;;;;;23.29;51.68;99801.41;7313396;19;130463;-66
2023/05/13 10:33:53;;;;;;;;;;;;;;;23.29;51.72;99790.91;7314603;19;129179;-68
2023/05/13 10:36:34;;;;;;;;;;;;;;;23.29;51.80;99800.59;7311827;19;129905;-68
2023/05/13 10:39:14;;;;;;;;;;;;;;;23.29;52.25;99790.09;7313954;19;129039;-68
2023/05/13 10:41:52;;;;;;;;;;;;;;;23.29;51.69;99796.16;7315374;19;129399;-67
2023/05/13 10:44:20;;;;;;;;;;;;;;;23.30;51.89;99803.06;7312817;19;129752;-67
2023/05/13 10:46:49;;;;;;;;;;;;;;;23.30;52.41;99803.06;7313220;19;129478;-66
2023/05/13 10:49:15;;;;;;;;;;;;;;;23.28;52.38;99793.69;7313132;19;129263;-66
2023/05/13 10:51:43;;;;;;;;;;;;;;;23.29;52.08;99800.59;7311885;19;132148;-66
2023/05/13 10:54:17;;;;;;;;;;;;;;;23.31;51.99;99809.97;7313913;19;130173;-67
2023/05/13 10:56:42;;;;;;;;;;;;;;;23.26;51.78;99806.91;7311319;19;130138;-67
2023/05/13 10:59:07;;;;;;;;;;;;;;;23.28;52.16;99809.44;7311118;19;129600;-68
2023/05/13 11:01:42;;;;;;;;;;;;;;;23.29;52.33;99822.41;7312838;19;130271;-67
2023/05/13 11:04:11;;;;;;;;;;;;;;;23.29;52.50;99821.59;7313725;19;130035;-66
2023/05/13 11:06:38;;;;;;;;;;;;;;;23.27;52.42;99818.28;7310125;19;128956;-67
2023/05/13 11:09:07;;;;;;;;;;;;;;;23.25;51.74;99823.63;7313203;19;129454;-67
2023/05/13 11:11:35;;;;;;;;;;;;;;;23.27;52.06;99834.03;7312903;19;129524;-67
2023/05/13 11:14:15;;;;;;;;;;;;;;;23.29;51.66;99848.63;7311889;19;129913;-67
2023/05/13 11:16:50;;;;;;;;;;;;;;;23.25;52.36;99842.81;7311775;19;129109;-68
2023/05/13 11:19:24;;;;;;;;;;;;;;;23.27;52.22;99847.13;7312040;19;131722;-68
2023/05/13 11:21:51;;;;;;;;;;;;;;;23.29;52.05;99848.63;7311626;19;129567;-67
2023/05/13 11:24:20;;;;;;;;;;;;;;;23.27;52.22;99857.63;7311325;19;129458;-67
2023/05/13 11:26:53;;;;;;;;;;;;;;;23.26;51.85;99848.88;7312158;19;129427;-67
2023/05/13 11:29:28;;;;;;;;;;;;;;;23.25;52.10;99857.75;7318288;19;130212;-66
2023/05/13 11:31:57;;;;;;;;;;;;;;;23.27;52.10;99860.25;7318481;19;129231;-67
2023/05/13 11:34:22;;;;;;;;;;;;;;;23.27;52.08;99861.06;7318861;19;129292;-67
2023/05/13 11:36:48;;;;;;;;;;;;;;;23.25;51.71;99863.78;7319504;19;128970;-67
2023/05/13 11:39:14;;;;;;;;;;;;;;;23.27;51.72;99861.06;7319895;19;129121;-68
2023/05/13 11:41:40;;;;;;;;;;;;;;;23.27;52.27;99868.94;7317092;19;130571;-67
2023/05/13 11:44:06;;;;;;;;;;;;;;;23.28;51.75;99864.50;7312860;19;129715;-67
2023/05/13 11:46:31;;;;;;;;;;;;;;;23.26;51.81;99864.63;7313516;19;129258;-68
2023/05/13 11:48:56;;;;;;;;;;;;;;;23.28;52.16;99867.97;7315440;19;128943;-68
2023/05/13 11:51:22;;;;;;;;;;;;;;;23.25;51.75;99874.28;7319452;19;129385;-68
2023/05/13 11:53:47;;;;;;;;;;;;;;;23.27;52.50;99862.88;7315056;19;129109;-68
2023/05/13 11:56:13;;;;;;;;;;;;;;;23.25;51.77;99866.41;7318151;19;129733;-68
2023/05/13 11:58:39;;;;;;;;;;;;;;;23.26;51.78;99864.63;7317778;19;129166;-68
2023/05/13 12:01:04;;;;;;;;;;;;;;;23.29;52.41;99869.63;7314998;19;129656;-68
2023/05/13 12:03:30;;;;;;;;;;;;;;;23.27;52.04;99866.31;7318145;19;129484;-68
2023/05/13 12:06:01;;;;;;;;;;;;;;;23.28;51.80;99867.97;7313217;19;129229;-68
2023/05/13 12:08:26;;;;;;;;;;;;;;;23.26;52.12;99856.75;7316458;19;129121;-68
2023/05/13 12:10:52;;;;;;;;;;;;;;;23.26;52.20;99864.63;7315655;19;130158;-67
2023/05/13 12:13:18;;;;;;;;;;;;;;;23.25;52.10;99852.50;7312387;19;129395;-66
2023/05/13 12:15:43;;;;;;;;;;;;;;;23.27;52.51;99866.31;7317149;19;129261;-67
2023/05/13 12:18:09;;;;;;;;;;;;;;;23.25;52.24;99860.38;7316459;19;131543;-66
2023/05/13 12:20:34;;;;;;;;;;;;;;;23.26;51.94;99862.00;7314046;19;129572;-67
2023/05/13 12:23:00;;;;;;;;;;;;;;;23.28;51.84;99861.91;7314993;19;129648;-66
2023/05/13 12:25:31;;;;;;;;;;;;;;;23.27;52.56;99865.50;7313575;19;129195;-67
2023/05/13 12:28:15;;;;;;;;;;;;;;;23.27;52.54;99860.25;7314326;19;129183;-67
2023/05/13 12:30:41;;;;;;;;;;;;;;;23.16;52.44;99848.09;7313937;19;129843;-67
2023/05/13 12:33:20;;;;;;;;;;;;;;;23.25;52.57;99873.47;7318737;19;129327;-68
2023/05/13 12:35:47;;;;;;;;;;;;;;;23.25;51.89;99870.84;7314639;19;129975;-68
2023/05/13 12:38:16;;;;;;;;;;;;;;;23.27;51.55;99876.78;7315781;19;129149;-68
2023/05/13 12:40:42;;;;;;;;;;;;;;;23.25;52.67;99881.34;7313218;19;129609;-66
2023/05/13 12:43:09;;;;;;;;;;;;;;;23.25;52.38;99884.78;7314976;19;129394;-67
2023/05/13 12:45:36;;;;;;;;;;;;;;;23.27;51.89;99884.66;7314268;19;129322;-67
2023/05/13 12:48:01;;;;;;;;;;;;;;;23.24;52.14;99887.56;7318146;19;129320;-67
2023/05/13 12:50:26;;;;;;;;;;;;;;;23.27;52.54;99894.34;7311753;19;130955;-66
2023/05/13 12:52:52;;;;;;;;;;;;;;;23.24;52.06;99885.75;7316938;19;129469;-66
2023/05/13 12:55:18;;;;;;;;;;;;;;;23.26;51.95;99898.72;7315097;19;129923;-67
2023/05/13 12:57:53;;;;;;;;;;;;;;;23.27;51.86;99886.50;7316463;19;128852;-68
2023/05/13 13:00:19;;;;;;;;;;;;;;;23.25;51.83;99891.84;7316078;19;129069;-68
2023/05/13 13:02:44;;;;;;;;;;;;;;;23.23;51.91;99880.66;7314595;19;129220;-68
2023/05/13 13:05:10;;;;;;;;;;;;;;;23.24;52.09;99882.31;7312129;19;129067;-68
2023/05/13 13:07:36;;;;;;;;;;;;;;;23.24;52.32;99882.31;7315512;19;130215;-67
2023/05/13 13:10:03;;;;;;;;;;;;;;;23.24;51.91;99882.31;7314301;19;129909;-66
2023/05/13 13:12:28;;;;;;;;;;;;;;;23.25;52.54;99886.59;7314212;19;132194;-67
2023/05/13 13:14:53;;;;;;;;;;;;;;;23.23;52.17;99881.50;7314524;19;129546;-66
2023/05/13 13:17:18;;;;;;;;;;;;;;;23.23;52.49;99880.66;7309853;19;128945;-66
2023/05/13 13:19:44;;;;;;;;;;;;;;;23.24;52.03;99890.16;7311097;19;131550;-66
2023/05/13 13:22:09;;;;;;;;;;;;;;;23.24;52.15;99887.56;7308414;19;129601;-67
2023/05/13 13:24:35;;;;;;;;;;;;;;;23.26;52.02;99880.38;7314434;19;129026;-67
2023/05/13 13:27:00;;;;;;;;;;;;;;;23.24;52.55;99890.16;7314226;19;129058;-67
2023/05/13 13:29:25;;;;;;;;;;;;;;;23.23;52.63;99885.91;7314204;19;129349;-67
2023/05/13 13:31:51;;;;;;;;;;;;;;;23.25;52.28;99883.97;7311887;19;130041;-66
2023/05/13 13:34:16;;;;;;;;;;;;;;;23.24;52.49;99882.31;7314468;19;129082;-66
2023/05/13 13:36:41;;;;;;;;;;;;;;;23.25;51.62;99874.28;7315144;19;129486;-67
2023/05/13 13:39:06;;;;;;;;;;;;;;;23.22;51.84;99884.28;7312665;19;129274;-66